Concho, Oklahoma
Current Conditions -  °F | °C
As of 7:15 AM on Friday 31 Oct 2014 (Local Time) from KRQO Reporting Station
Clear Clear  
Wind Chill: 36°   Ceiling: Unl
Heat Index: 43°   Visibility: 10mi
Dew Point: 36°   Wind: 13mph
Humidity: 76%   Direction: 350°N
Pressure: 30.39"   Gusts: NA
Location:  35.62°N, 97.99°W
Report Text: KRQO 311215Z AUTO 35011KT 10SM CLR 06/02 A3039 RMK AO2
Loading
Personal Weather Stations






























Interactive Weather Map
Tropical Storm Tracking
New forecast layout! Learn more

10-Day Weather Forecast

Advertisements
Track Severe Weather on mobile